WXForecasting.com
Aberdeen, SD - Weather Station Data
 
Daily Summary for March 30, 2017 Units:  English    Metric   Both
« Previous Day
Next Day »
Daily Weekly Monthly Yearly Custom
  Current: High: Low: Average:
Temperature: 49.4 °F 50.0 °F 33.7 °F 41.6 °F
Dew Point: 38.0 °F 39.0 °F 31.0 °F 36 °F
Humidity: 64 % 90 % 63 % 81 %
Wind Speed: 4.0 mph 8.0 mph 0.0 mph 1.1 mph
Wind Gust: 6.0 mph 8.0 mph - -
Wind:ESE - - ESE
Pressure: 29.87 in 30.05 in 29.86 in -
Precipitation: 0.00 in      
Historical Graphs
 
 
Tabular Data for March 30, 2017
Time Temperature Dew Point Pressure Wind Wind Speed Wind Gust Humidity Rainfall Rate (Hourly) solar Conditions
00:06 40.1 °F 35.0 °F 30.04 in SE 2.0 mph 7.0 mph 81 % 0.00 in 0 W/m2
00:20 39.6 °F 35.0 °F 30.04 in ESE 1.0 mph 4.0 mph 82 % 0.00 in 0 W/m2
00:35 39.3 °F 34.0 °F 30.05 in ESE 1.0 mph 3.0 mph 82 % 0.00 in 0 W/m2
00:51 39.3 °F 34.0 °F 30.05 in Calm   4.0 mph 82 % 0.00 in 0 W/m2
01:06 39.1 °F 35.0 °F 30.04 in Calm   4.0 mph 84 % 0.00 in 0 W/m2
01:21 39.2 °F 35.0 °F 30.04 in Calm   2.0 mph 84 % 0.00 in 0 W/m2
01:36 39.3 °F 35.0 °F 30.03 in SE 2.0 mph 8.0 mph 84 % 0.00 in 0 W/m2
01:51 39.3 °F 35.0 °F 30.03 in East 1.0 mph 4.0 mph 84 % 0.00 in 0 W/m2
02:06 39.1 °F 35.0 °F 30.02 in ESE 2.0 mph 3.0 mph 85 % 0.00 in 0 W/m2
02:21 39.4 °F 36.0 °F 30.02 in SE 3.0 mph 4.0 mph 86 % 0.00 in 0 W/m2
02:36 39.7 °F 36.0 °F 30.02 in SE 1.0 mph 4.0 mph 86 % 0.00 in 0 W/m2
02:51 39.6 °F 36.0 °F 30.01 in ESE 2.0 mph 4.0 mph 86 % 0.00 in 0 W/m2
03:06 38.8 °F 35.0 °F 30.00 in Calm   4.0 mph 85 % 0.00 in 0 W/m2
03:21 37.9 °F 34.0 °F 30.00 in ESE 1.0 mph 2.0 mph 85 % 0.00 in 0 W/m2
03:36 37.1 °F 33.0 °F 29.99 in Calm   2.0 mph 86 % 0.00 in 0 W/m2
03:51 36.6 °F 33.0 °F 29.98 in Calm   2.0 mph 86 % 0.00 in 0 W/m2
04:06 36.9 °F 34.0 °F 29.98 in Calm   1.0 mph 88 % 0.00 in 0 W/m2
04:21 37.7 °F 35.0 °F 29.97 in Calm   2.0 mph 88 % 0.00 in 0 W/m2
04:36 38.3 °F 35.0 °F 29.97 in Calm   2.0 mph 89 % 0.00 in 0 W/m2
04:51 38.7 °F 36.0 °F 29.97 in Calm   2.0 mph 89 % 0.00 in 0 W/m2
05:06 38.8 °F 36.0 °F 29.97 in Calm   3.0 mph 88 % 0.00 in 0 W/m2
05:21 38.7 °F 36.0 °F 29.96 in Calm   3.0 mph 88 % 0.00 in 0 W/m2
05:36 38.2 °F 35.0 °F 29.95 in Calm   3.0 mph 87 % 0.00 in 0 W/m2
05:51 37.6 °F 34.0 °F 29.95 in Calm   1.0 mph 87 % 0.00 in 0 W/m2
06:06 36.8 °F 33.0 °F 29.94 in Calm   1.0 mph 87 % 0.00 in 0 W/m2
06:21 35.7 °F 32.0 °F 29.94 in Calm   1.0 mph 87 % 0.00 in 0 W/m2
06:36 34.8 °F 31.0 °F 29.95 in Calm   1.0 mph 87 % 0.00 in 0 W/m2
06:52 34.4 °F 31.0 °F 29.94 in Calm     88 % 0.00 in 0 W/m2
07:06 33.7 °F 31.0 °F 29.95 in Calm     88 % 0.00 in 0 W/m2
07:21 34.8 °F 32.0 °F 29.94 in Calm   2.0 mph 89 % 0.00 in 5 W/m2
07:36 35.7 °F 33.0 °F 29.94 in East 1.0 mph 2.0 mph 89 % 0.00 in 12 W/m2
07:51 36.8 °F 34.0 °F 29.94 in Calm   2.0 mph 90 % 0.00 in 21 W/m2
08:07 37.6 °F 35.0 °F 29.94 in Calm   1.0 mph 90 % 0.00 in 56 W/m2
08:22 38.5 °F 36.0 °F 29.93 in Calm   2.0 mph 90 % 0.00 in 84 W/m2
08:37 39.3 °F 36.0 °F 29.93 in Calm   2.0 mph 89 % 0.00 in 67 W/m2
08:52 39.8 °F 37.0 °F 29.94 in Calm   3.0 mph 88 % 0.00 in 91 W/m2
09:07 40.6 °F 37.0 °F 29.93 in Calm   1.0 mph 88 % 0.00 in 91 W/m2
09:22 41.1 °F 37.0 °F 29.93 in Calm   3.0 mph 86 % 0.00 in 86 W/m2
09:37 41.4 °F 37.0 °F 29.92 in East 2.0 mph 3.0 mph 85 % 0.00 in 98 W/m2
09:52 41.5 °F 37.0 °F 29.92 in East 1.0 mph 3.0 mph 84 % 0.00 in 121 W/m2
10:07 41.8 °F 37.0 °F 29.92 in ESE 2.0 mph 6.0 mph 83 % 0.00 in 128 W/m2
10:22 42.1 °F 37.0 °F 29.92 in ESE 2.0 mph 5.0 mph 82 % 0.00 in 135 W/m2
10:37 42.4 °F 37.0 °F 29.92 in SE 3.0 mph 4.0 mph 82 % 0.00 in 141 W/m2
10:52 42.6 °F 37.0 °F 29.92 in Calm   4.0 mph 81 % 0.00 in 162 W/m2
11:07 43.3 °F 38.0 °F 29.92 in ESE 1.0 mph 4.0 mph 81 % 0.00 in 162 W/m2
11:22 43.4 °F 38.0 °F 29.91 in ESE 2.0 mph 4.0 mph 80 % 0.00 in 151 W/m2
11:37 43.5 °F 38.0 °F 29.92 in Calm   6.0 mph 80 % 0.00 in 132 W/m2
11:53 43.5 °F 38.0 °F 29.92 in Calm   6.0 mph 80 % 0.00 in 118 W/m2
12:07 43.6 °F 38.0 °F 29.91 in East 3.0 mph 4.0 mph 79 % 0.00 in 141 W/m2
12:22 44.0 °F 38.0 °F 29.91 in NE 2.0 mph 5.0 mph 78 % 0.00 in 153 W/m2
12:37 44.1 °F 38.0 °F 29.91 in Calm   5.0 mph 78 % 0.00 in 200 W/m2
12:52 44.6 °F 37.0 °F 29.90 in Calm   3.0 mph 76 % 0.00 in 176 W/m2
13:07 45.1 °F 38.0 °F 29.90 in ESE 3.0 mph 6.0 mph 76 % 0.00 in 193 W/m2
13:22 45.4 °F 38.0 °F 29.90 in Calm   4.0 mph 75 % 0.00 in 188 W/m2
13:37 45.4 °F 38.0 °F 29.90 in NE 3.0 mph 6.0 mph 74 % 0.00 in 186 W/m2
13:52 45.7 °F 37.0 °F 29.89 in East 1.0 mph 4.0 mph 73 % 0.00 in 225 W/m2
14:07 46.3 °F 38.0 °F 29.89 in ESE 1.0 mph 6.0 mph 72 % 0.00 in 271 W/m2
14:22 46.8 °F 38.0 °F 29.89 in SE 1.0 mph 5.0 mph 72 % 0.00 in 272 W/m2
14:38 46.8 °F 38.0 °F 29.88 in NE 1.0 mph 5.0 mph 71 % 0.00 in 708 W/m2
14:53 48.9 °F 39.0 °F 29.87 in SW 1.0 mph 5.0 mph 69 % 0.00 in 424 W/m2
15:08 48.9 °F 38.0 °F 29.87 in ESE 2.0 mph 7.0 mph 65 % 0.00 in 244 W/m2
15:23 48.8 °F 38.0 °F 29.86 in SE 2.0 mph 8.0 mph 66 % 0.00 in 295 W/m2
15:38 48.7 °F 37.0 °F 29.86 in NE 2.0 mph 6.0 mph 65 % 0.00 in 264 W/m2
15:53 49.1 °F 38.0 °F 29.86 in Calm   4.0 mph 65 % 0.00 in 230 W/m2
16:08 49.4 °F 38.0 °F 29.86 in SSE 3.0 mph 8.0 mph 65 % 0.00 in 329 W/m2
16:23 49.8 °F 38.0 °F 29.86 in NE 4.0 mph 5.0 mph 63 % 0.00 in 295 W/m2
16:38 49.7 °F 38.0 °F 29.87 in SE 3.0 mph 7.0 mph 64 % 0.00 in 306 W/m2
16:53 49.7 °F 38.0 °F 29.87 in East 8.0 mph 8.0 mph 64 % 0.00 in 195 W/m2
17:08 50.0 °F 38.0 °F 29.87 in ESE 2.0 mph 7.0 mph 63 % 0.00 in 202 W/m2
17:23 49.4 °F 38.0 °F 29.87 in ESE 4.0 mph 6.0 mph 64 % 0.00 in 162 W/m2
Compliments of Weather Underground - 2.5 mb

8 Visitors online right now
Max visitors today: 84 at 03:23 pm EDT
This month: 94 at 03-22-2017 06:40 pm EDT
This year: 94 at 03-22-2017 06:40 pm EDT
All time: 104 at 01-04-2012 03:34 am EST
See Who is Online